パゴパゴ国際空港の過去48時間の天気

パゴパゴ国際空港 (Pago Pago / Int. Airport)

現在時刻: 5/25 15:03 SST (5/26 02:03 UTC) 以下の時間は現地時間です。

過去48時間のMETAR気象情報
時間 風向 風速(m/s) 視程 気温(℃) 湿度(%) 気圧(hPa) 天気現象
25 14:50 7 10km以上 29.3 84 1008.5
25 13:55 7 10km以上 30.6 80 1009
25 11:50 8 10km以上 30.1 82 1010.3
25 10:50 9 10km以上 30.2 81 1011.2
25 09:50 8 10km以上 30.4 82 1011.7
25 07:50 8 10km以上 28.5 87 1011.3
25 05:50 東南東 8 10km以上 27.3 90 1010.3
25 04:50 5 10km以上 27 92 1010
25 03:50 東南東 6 10km以上 27.3 92 1010
25 02:50 東南東 6 10km以上 27.7 90 1010.3
25 00:50 東南東 6 10km以上 27.8 89 1011.2
24 23:50 東南東 7 10km以上 27.9 89 1011.7
24 22:50 7 10km以上 27.9 89 1012
24 21:50 8 10km以上 28 88 1012.2
24 20:50 東南東 6 10km以上 28.1 88 1012
24 19:50 7 10km以上 28 89 1011.5
24 18:50 7 10km以上 27.9 87 1010.8
24 17:50 6 10km以上 28.1 87 1010.3
24 16:50 7 10km以上 28.5 85 1010
24 14:50 7 10km以上 29.5 85 1010.2
24 13:50 7 10km以上 28.8 90 1010.8
24 12:50 東北東 7 10km以上 28.2 84 1011.9 弱いしゅう雨
24 11:50 東南東 8 10km以上 30 82 1012.9
24 10:50 東南東 7 10km以上 30.2 81 1013.5
24 09:50 東南東 7 10km以上 29.7 80 1014.2
24 08:50 7 10km以上 29 81 1014.2
24 07:50 東南東 8 10km以上 28.1 88 1013.7
24 06:50 東南東 7 10km以上 27.6 87 1013.2
24 05:50 東南東 7 10km以上 27.7 86 1012.7
24 04:50 東南東 7 10km以上 27.9 87 1012.2
24 02:50 東南東 7 10km以上 27.8 87 1012.9
24 01:50 東南東 7 10km以上 27.8 87 1013
24 00:50 東南東 9 10km以上 28 87 1013.9
23 23:50 東南東 7 10km以上 28.1 87 1014.2
23 22:50 7 10km以上 28 85 1014.9
23 21:50 7 10km以上 28 85 1015.1
23 20:50 東南東 6 10km以上 28 85 1014.7
23 19:50 東南東 7 10km以上 28 85 1013.9
23 18:50 東南東 8 10km以上 28 86 1013.4
23 17:50 東南東 8 10km以上 27.8 89 1012.5
23 16:50 7 10km以上 28.5 84 1012.2
23 15:50 8 10km以上 28.8 83 1011.9
NSTU 260150Z 10013G17KT 12SM SCT015TCU SCT040 BKN100 29/26 A2978 RMK TCU NW-N-NE SLP085 T02930263
NSTU 260055Z 09013KT 12SM FEW017 SCT040 31/27 A2980 RMK SLP090 T03060268
NSTU 252250Z 09015G20KT 12SM FEW016 BKN100 30/27 A2983 RMK SLP103 T03010267
NSTU 252150Z 09017KT 12SM BKN017TCU 30/27 A2986 RMK TCU NW-NE-E SLP112 T03020266
NSTU 252050Z 09016KT 12SM SCT017 30/27 A2987 RMK SLP117 8/100 T03040269 52007
NSTU 251850Z 10016KT 12SM FEW015 SCT100 29/26 A2986 RMK SLP113 T02850262
NSTU 251650Z 11016KT 10SM FEW021 SCT040 27/26 A2983 RMK SLP103 T02730256
NSTU 251550Z 10009KT 10SM FEW021 SCT100 27/26 A2983 RMK SLP100 MTRPPG T02700256
NSTU 251450Z 11012KT 10SM FEW021 SCT040 BKN120 BKN200 27/26 A2982 RMK SLP100 8/871 T02730259 56012
NSTU 251350Z 12012KT 10SM FEW021 SCT040 BKN120 BKN200 28/26 A2983 RMK SLP103 T02770259
NSTU 251150Z 11012KT 10SM FEW021 SCT040 BKN120 28/26 A2986 RMK SLP112 70006 8/470 T02780258 10281 20278 57010
NSTU 251050Z 11014KT 10SM FEW021 SCT040 BKN120 28/26 A2987 RMK SLP117 T02790259 403020276
NSTU 250950Z 10014KT 10SM FEW021 SCT040 BKN120 28/26 A2988 RMK SLP120 T02790259
NSTU 250850Z 10015KT 10SM FEW021 SCT040 BKN120 28/26 A2989 RMK SLP122 8/870 T02800258 52014
NSTU 250750Z 11012KT 10SM FEW021 SCT040 BKN120 28/26 A2988 RMK SLP120 T02810259
NSTU 250650Z 10014KT 10SM FEW021 SCT040 BKN120 28/26 A2987 RMK SLP115 T02800260
NSTU 250550Z 10014KT 10SM FEW021 SCT040 SCT120 28/26 A2985 RMK SLP108 60005 8/870 T02790256 10295 20279 52012
NSTU 250450Z 10012KT 12SM SCT020 SCT040 BKN120 28/26 A2983 RMK SLP103 T02810258
NSTU 250350Z 10013KT 12SM SCT021 BKN040 BKN120 29/26 A2982 RMK SLP100 T02850258
NSTU 250150Z 10014KT 12SM SCT021 SCT040 BKN120 30/27 A2983 RMK SLP102 T02950268
NSTU 250050Z 10013KT 12SM FEW021 SCT040 BKN120 29/27 A2985 RMK SHRAE27 SLP108 T02880269
NSTU 242350Z 06013G22KT 10SM -SHRA SCT019 BKN040 BKN100 28/25 A2988 RMK SHRAB47 SLP119 60001 8/420 T02820253 10302 20276 57024
NSTU 242250Z 11015KT 12SM SCT019 SCT040 BKN120 30/27 A2991 RMK SLP129 T03000265
NSTU 242150Z 11013KT 12SM SCT019 SCT040 BKN120 30/27 A2993 RMK SLP135 T03020265
NSTU 242050Z 11014KT 12SM FEW019 SCT040 BKN120 30/26 A2995 RMK SLP142 8/870 T02970259 50010
NSTU 241950Z 10014KT 12SM SCT017 BKN120 29/25 A2995 RMK SLP142 T02900254
NSTU 241850Z 11016KT 12SM FEW017 SCT040 BKN120 28/26 A2993 RMK SLP137 T02810260
NSTU 241750Z 11014KT 12SM SCT017TCU BKN220 28/25 A2992 RMK TCU NW SLP132 8/201 T02760252 10280 20276 53007
NSTU 241650Z 11014KT 10SM FEW020 SCT040 BKN120 28/25 A2990 RMK SLP127 T02770252
NSTU 241550Z 11014KT 10SM FEW020 SCT040 BKN100 28/26 A2989 RMK SLP122 T02790256
NSTU 241350Z 11014KT 10SM FEW020 SCT040 BKN100 28/25 A2991 RMK SLP129 T02780254
NSTU 241250Z 11014KT 10SM FEW020 SCT040 BKN100 28/25 A2991 RMK SLP130 T02780254
NSTU 241150Z 11017KT 10SM SCT020 BKN040 OVC100 28/26 A2994 RMK SLP139 70006 8/42/ T02800256 10281 20280 57012
NSTU 241050Z 11013KT 10SM FEW022 SCT100 BKN200 28/26 A2995 RMK SLP142 T02810257 403020251
NSTU 240950Z 10014KT 10SM SCT023 28/25 A2997 RMK SLP149 T02800252
NSTU 240850Z 10013KT 10SM SCT023 28/25 A2997 RMK SLP151 8/100 T02800253 52017
NSTU 240750Z 11012KT 10SM FEW024 28/25 A2996 RMK SLP147 T02800252
NSTU 240650Z 11014KT 10SM SCT023 28/25 A2994 RMK SLP139 T02800253
NSTU 240550Z 11016KT 10SM SCT022 28/25 A2992 RMK SLP134 60001 8/100 T02800254 10302 20278 52015
NSTU 240450Z 11016KT 12SM SCT020 28/26 A2990 RMK SHRAB05E44 SLP125 T02780258
NSTU 240350Z 10014KT 12SM SCT022 29/26 A2989 RMK SLP122 T02850256
NSTU 240250Z 10015KT 12SM SCT020 SCT040 29/26 A2988 RMK SLP119 8/800 T02880256 57014